createdAt,value
2023-04-06T00:02:36.223Z,59.19
2023-04-06T00:05:38.997Z,58.58
2023-04-06T00:08:42.630Z,59.83
2023-04-06T00:11:45.442Z,60.48
2023-04-06T00:14:48.266Z,60.68
2023-04-06T00:17:51.230Z,61.14
2023-04-06T00:20:53.992Z,61.59
2023-04-06T00:23:56.963Z,59.40
2023-04-06T00:26:59.792Z,59.72
2023-04-06T00:30:03.348Z,60.31
2023-04-06T00:33:06.374Z,60.53
2023-04-06T00:36:09.288Z,61.15
2023-04-06T00:39:12.345Z,59.56
2023-04-06T00:42:15.606Z,60.60
2023-04-06T00:45:18.559Z,59.87
2023-04-06T00:48:21.517Z,59.01
2023-04-06T00:51:24.420Z,58.78
2023-04-06T00:54:27.365Z,58.66
2023-04-06T00:57:30.999Z,58.86
2023-04-06T01:00:34.770Z,58.20
2023-04-06T01:03:39.387Z,58.48
2023-04-06T01:06:43.268Z,60.31
2023-04-06T01:09:46.080Z,61.28
2023-04-06T01:12:55.741Z,60.21
2023-04-06T01:16:17.549Z,61.41
2023-04-06T01:19:30.514Z,62.43
2023-04-06T01:22:34.143Z,61.39
2023-04-06T01:25:39.402Z,63.45
2023-04-06T01:28:45.648Z,63.18
2023-04-06T01:31:59.702Z,63.46
2023-04-06T01:35:02.612Z,65.65
2023-04-06T01:38:10.282Z,64.38
2023-04-06T01:41:14.125Z,62.23
2023-04-06T01:44:31.638Z,61.03
2023-04-06T01:47:43.420Z,61.93
2023-04-06T01:50:48.653Z,62.46
2023-04-06T01:53:57.107Z,62.27
2023-04-06T01:57:07.951Z,61.58
2023-04-06T02:00:31.009Z,63.05
2023-04-06T02:03:33.893Z,63.80
2023-04-06T02:06:42.910Z,64.59
2023-04-06T02:09:48.541Z,65.72
2023-04-06T02:13:00.138Z,66.22
2023-04-06T02:16:04.192Z,66.36
2023-04-06T02:19:07.872Z,66.76
2023-04-06T02:22:11.562Z,67.70
2023-04-06T02:25:14.451Z,67.40
2023-04-06T02:28:17.430Z,67.49
2023-04-06T02:31:20.235Z,66.59
2023-04-06T02:34:26.464Z,67.28
2023-04-06T02:37:30.692Z,67.21
2023-04-06T02:40:35.639Z,67.50
2023-04-06T02:43:49.516Z,67.17
2023-04-06T02:47:02.197Z,67.42
2023-04-06T02:50:06.423Z,67.86
2023-04-06T02:53:14.404Z,68.43
2023-04-06T02:56:17.712Z,67.53
2023-04-06T02:59:25.751Z,67.45
2023-04-06T03:02:40.960Z,66.58
2023-04-06T03:05:50.905Z,68.48
2023-04-06T03:09:00.857Z,68.69
2023-04-06T03:12:10.439Z,68.05
2023-04-06T03:15:36.171Z,68.20
2023-04-06T03:18:48.983Z,68.40
2023-04-06T03:21:51.810Z,67.89
2023-04-06T03:24:56.631Z,67.40
2023-04-06T03:27:59.628Z,67.90
2023-04-06T03:31:03.110Z,67.70
2023-04-06T03:34:18.014Z,67.15
2023-04-06T03:37:20.906Z,67.26
2023-04-06T03:40:28.820Z,66.63
2023-04-06T03:43:31.722Z,66.22
2023-04-06T03:46:34.582Z,68.77
2023-04-06T03:49:38.616Z,69.33
2023-04-06T03:52:45.012Z,70.08
2023-04-06T03:55:48.349Z,70.37
2023-04-06T03:58:52.046Z,70.60
2023-04-06T04:01:57.354Z,70.66
2023-04-06T04:05:00.173Z,70.21
2023-04-06T04:08:03.195Z,69.21
2023-04-06T04:11:06.784Z,69.88
2023-04-06T04:14:09.901Z,68.62
2023-04-06T04:17:12.731Z,69.10
2023-04-06T04:20:15.843Z,67.70
2023-04-06T04:23:18.572Z,68.98
2023-04-06T04:26:21.386Z,69.07
2023-04-06T04:29:24.383Z,68.50
2023-04-06T04:32:30.105Z,67.86
2023-04-06T04:35:34.961Z,67.53
2023-04-06T04:38:39.799Z,68.02
2023-04-06T04:41:43.176Z,68.58
2023-04-06T04:44:48.632Z,69.12
2023-04-06T04:47:56.891Z,68.17
2023-04-06T04:51:05.316Z,67.75
2023-04-06T04:54:20.542Z,66.13
2023-04-06T04:57:23.469Z,65.25
2023-04-06T05:00:28.569Z,64.60
2023-04-06T05:03:34.669Z,64.11
2023-04-06T05:06:41.839Z,65.08
2023-04-06T05:09:46.839Z,64.35
2023-04-06T05:12:50.930Z,63.88
2023-04-06T05:15:53.777Z,63.76
2023-04-06T05:19:09.354Z,63.75
2023-04-06T05:22:19.061Z,63.35
2023-04-06T05:25:28.527Z,63.30
2023-04-06T05:28:35.451Z,63.71
2023-04-06T05:31:39.228Z,63.48
2023-04-06T05:34:42.214Z,63.66
2023-04-06T05:37:45.545Z,63.47
2023-04-06T05:40:48.806Z,63.38
2023-04-06T05:43:54.832Z,63.27
2023-04-06T05:46:59.610Z,63.30
2023-04-06T05:50:04.671Z,63.31
2023-04-06T05:53:12.556Z,63.33
2023-04-06T05:56:20.220Z,62.84
2023-04-06T05:59:25.261Z,62.98
2023-04-06T06:02:32.228Z,62.71
2023-04-06T06:05:35.319Z,63.07
2023-04-06T06:08:47.145Z,62.81
2023-04-06T06:11:52.780Z,62.21
2023-04-06T06:14:59.983Z,62.26
2023-04-06T06:18:04.828Z,62.79
2023-04-06T06:21:07.989Z,62.69
2023-04-06T06:24:11.351Z,62.95
2023-04-06T06:27:15.799Z,63.01
2023-04-06T06:30:20.442Z,62.74
2023-04-06T06:33:27.355Z,62.42
2023-04-06T06:36:33.234Z,62.02
2023-04-06T06:39:37.794Z,62.46
2023-04-06T06:42:41.122Z,62.05
2023-04-06T06:46:07.793Z,62.32
2023-04-06T06:49:12.817Z,62.38
2023-04-06T06:52:16.042Z,62.12
2023-04-06T06:55:23.022Z,62.07
2023-04-06T06:58:26.224Z,62.38
2023-04-06T07:01:30.002Z,61.30
2023-04-06T07:04:35.402Z,61.65
2023-04-06T07:07:38.310Z,61.64
2023-04-06T07:10:41.226Z,61.06
2023-04-06T07:13:44.451Z,61.07
2023-04-06T07:16:48.343Z,60.15
2023-04-06T07:19:51.838Z,58.64
2023-04-06T07:22:54.755Z,59.11
2023-04-06T07:25:57.540Z,59.53
2023-04-06T07:29:00.529Z,58.70
2023-04-06T07:32:04.280Z,57.83
2023-04-06T07:35:08.413Z,57.68
2023-04-06T07:38:11.875Z,57.78
2023-04-06T07:41:16.242Z,57.25
2023-04-06T07:44:19.648Z,56.31
2023-04-06T07:47:24.879Z,57.47
2023-04-06T07:50:27.886Z,56.12
2023-04-06T07:53:32.467Z,55.66
2023-04-06T07:56:35.336Z,55.25
2023-04-06T07:59:38.515Z,55.50
2023-04-06T08:02:41.831Z,54.83
2023-04-06T08:05:44.537Z,55.33
2023-04-06T08:08:47.393Z,53.79
2023-04-06T08:11:50.433Z,52.71
2023-04-06T08:14:53.519Z,53.09
2023-04-06T08:17:58.541Z,52.46
2023-04-06T08:21:01.389Z,52.68
2023-04-06T08:24:04.884Z,51.06
2023-04-06T08:27:08.083Z,51.28
2023-04-06T08:30:11.407Z,51.01
2023-04-06T08:33:14.405Z,50.48
2023-04-06T08:36:18.312Z,50.92
2023-04-06T08:39:26.723Z,50.38
2023-04-06T08:42:33.815Z,48.48
2023-04-06T08:45:42.118Z,48.38
2023-04-06T08:48:45.565Z,48.15
2023-04-06T08:51:48.766Z,47.54
2023-04-06T08:54:51.787Z,47.37
2023-04-06T08:57:56.502Z,46.85
2023-04-06T09:01:00.842Z,47.37
2023-04-06T09:04:09.515Z,46.85
2023-04-06T09:07:12.574Z,44.95
2023-04-06T09:10:16.977Z,45.69
2023-04-06T09:13:24.050Z,45.43
2023-04-06T09:16:27.323Z,44.64
2023-04-06T09:19:30.316Z,46.08
2023-04-06T09:22:43.529Z,43.93
2023-04-06T09:25:46.499Z,44.18
2023-04-06T09:28:54.990Z,44.44
2023-04-06T09:32:08.493Z,43.78
2023-04-06T09:35:11.849Z,43.40
2023-04-06T09:38:14.870Z,43.04
2023-04-06T09:41:30.083Z,43.32
2023-04-06T09:44:33.082Z,43.45
2023-04-06T09:47:38.953Z,43.90
2023-04-06T09:50:42.118Z,43.84
2023-04-06T09:53:46.872Z,42.82
2023-04-06T09:56:58.733Z,42.12
2023-04-06T10:00:15.844Z,41.80
2023-04-06T10:03:31.768Z,41.80
2023-04-06T10:06:36.704Z,41.13
2023-04-06T10:09:39.858Z,41.46
2023-04-06T10:12:43.371Z,39.84
2023-04-06T10:15:46.479Z,40.88
2023-04-06T10:18:53.671Z,41.13
2023-04-06T10:21:56.446Z,41.63
2023-04-06T10:24:59.730Z,43.19
2023-04-06T10:28:06.709Z,42.90
2023-04-06T10:31:09.452Z,42.95
2023-04-06T10:34:12.458Z,43.10
2023-04-06T10:37:16.278Z,43.68
2023-04-06T10:40:21.366Z,42.48
2023-04-06T10:43:24.435Z,43.55
2023-04-06T10:46:29.023Z,41.96
2023-04-06T10:49:32.544Z,42.31
2023-04-06T10:52:35.949Z,42.79
2023-04-06T10:55:41.818Z,42.07
2023-04-06T10:58:49.677Z,42.16
2023-04-06T11:01:52.845Z,42.19
2023-04-06T11:04:57.925Z,42.31
2023-04-06T11:08:00.883Z,42.99
2023-04-06T11:11:10.692Z,43.26
2023-04-06T11:14:13.634Z,43.62
2023-04-06T11:17:16.662Z,43.32
2023-04-06T11:20:20.962Z,44.42
2023-04-06T11:23:25.901Z,43.49
2023-04-06T11:26:28.973Z,44.26
2023-04-06T11:29:33.398Z,43.30
2023-04-06T11:32:47.139Z,43.83
2023-04-06T11:35:52.460Z,44.58
2023-04-06T11:38:55.325Z,43.56
2023-04-06T11:42:05.558Z,43.26
2023-04-06T11:45:10.484Z,43.68
2023-04-06T11:48:21.095Z,43.60
2023-04-06T11:51:28.649Z,43.65
2023-04-06T11:54:39.353Z,45.22
2023-04-06T11:57:43.004Z,43.45
2023-04-06T12:00:47.699Z,43.30
2023-04-06T12:03:51.811Z,43.30
2023-04-06T12:06:54.842Z,43.35
2023-04-06T12:09:57.997Z,43.22
2023-04-06T12:13:00.912Z,43.72
2023-04-06T12:16:03.980Z,43.99
2023-04-06T12:19:06.858Z,43.89
2023-04-06T12:22:09.741Z,43.67
2023-04-06T12:25:13.872Z,43.67
2023-04-06T12:28:16.977Z,43.78
2023-04-06T12:31:21.359Z,44.48
2023-04-06T12:34:24.322Z,43.93
2023-04-06T12:37:28.412Z,45.20
2023-04-06T12:40:31.477Z,44.06
2023-04-06T12:43:34.694Z,43.34
2023-04-06T12:46:40.882Z,44.73
2023-04-06T12:49:44.217Z,44.64
2023-04-06T12:52:47.222Z,44.72
2023-04-06T12:55:49.921Z,45.15
2023-04-06T12:58:53.838Z,45.10
2023-04-06T13:01:56.767Z,45.49
2023-04-06T13:04:59.723Z,44.95
2023-04-06T13:08:02.496Z,45.50
2023-04-06T13:11:06.377Z,44.94
2023-04-06T13:14:09.254Z,45.14
2023-04-06T13:17:12.456Z,45.53
2023-04-06T13:20:15.877Z,45.39
2023-04-06T13:23:18.711Z,45.58
2023-04-06T13:26:22.822Z,45.77
2023-04-06T13:29:26.015Z,46.11
2023-04-06T13:32:29.113Z,45.66
2023-04-06T13:35:31.842Z,45.45
2023-04-06T13:38:34.963Z,45.98
2023-04-06T13:41:37.944Z,45.92
2023-04-06T13:44:40.794Z,46.22
2023-04-06T13:47:43.769Z,46.40
2023-04-06T13:50:47.224Z,46.19
2023-04-06T13:53:53.816Z,45.78
2023-04-06T13:56:58.273Z,45.37
2023-04-06T14:00:02.891Z,45.21
2023-04-06T14:03:08.211Z,45.47
2023-04-06T14:06:20.679Z,45.85
2023-04-06T14:09:31.299Z,47.58
2023-04-06T14:12:34.177Z,48.13
2023-04-06T14:15:37.378Z,48.64
2023-04-06T14:18:40.219Z,48.77
2023-04-06T14:21:44.990Z,49.33
2023-04-06T14:24:48.321Z,51.68
2023-04-06T14:27:51.921Z,52.57
2023-04-06T14:30:54.824Z,53.99
2023-04-06T14:33:58.429Z,56.64
2023-04-06T14:37:01.313Z,58.13
2023-04-06T14:40:04.969Z,59.33
2023-04-06T14:43:07.795Z,59.38
2023-04-06T14:46:10.843Z,60.03
2023-04-06T14:49:14.297Z,60.36
2023-04-06T14:52:17.597Z,59.85
2023-04-06T14:55:20.352Z,60.47
2023-04-06T14:58:24.309Z,61.21
2023-04-06T15:01:27.061Z,61.33
2023-04-06T15:07:34.122Z,62.81
2023-04-06T15:10:37.280Z,63.00
2023-04-06T15:13:41.369Z,63.84
2023-04-06T15:16:44.186Z,64.11
2023-04-06T15:19:46.993Z,64.49
2023-04-06T15:22:49.915Z,64.56
2023-04-06T15:25:54.922Z,64.94
2023-04-06T15:28:57.725Z,65.93
2023-04-06T15:32:00.621Z,67.24
2023-04-06T15:35:10.823Z,68.59
2023-04-06T15:38:13.889Z,68.06
2023-04-06T15:41:16.888Z,70.19
2023-04-06T15:44:20.483Z,71.55
2023-04-06T15:47:24.428Z,72.92
2023-04-06T15:50:28.420Z,74.38
2023-04-06T15:53:31.556Z,75.61
2023-04-06T15:56:34.613Z,76.34
2023-04-06T15:59:37.515Z,78.18
2023-04-06T16:02:40.536Z,79.21
2023-04-06T16:05:48.888Z,79.72
2023-04-06T16:08:59.239Z,80.43
2023-04-06T16:12:02.085Z,81.35
2023-04-06T16:15:05.406Z,82.59
2023-04-06T16:18:08.154Z,83.78
2023-04-06T16:21:18.592Z,84.07
2023-04-06T16:24:22.410Z,85.62
2023-04-06T16:27:25.162Z,87.17
2023-04-06T16:30:30.508Z,88.36
2023-04-06T16:33:33.229Z,89.13
2023-04-06T16:36:36.072Z,89.80
2023-04-06T16:39:38.876Z,91.64
2023-04-06T16:42:45.031Z,93.79
2023-04-06T16:45:51.733Z,94.29
2023-04-06T16:48:55.179Z,95.50
2023-04-06T16:52:02.194Z,96.34
2023-04-06T16:55:05.709Z,97.11
2023-04-06T16:58:08.887Z,97.49
2023-04-06T17:01:41.445Z,97.74
2023-04-06T17:04:44.906Z,98.05
2023-04-06T17:07:47.726Z,98.57
2023-04-06T17:10:59.251Z,99.74
2023-04-06T17:14:05.727Z,99.04
2023-04-06T17:17:08.748Z,100.00
2023-04-06T17:20:11.807Z,100.00
2023-04-06T17:23:15.668Z,100.00
2023-04-06T17:26:18.604Z,100.00
2023-04-06T17:29:21.385Z,100.00
2023-04-06T17:32:24.117Z,100.00
2023-04-06T17:35:27.270Z,100.00
2023-04-06T17:38:30.166Z,100.00
2023-04-06T17:41:35.017Z,100.00
2023-04-06T17:44:38.928Z,100.00
2023-04-06T17:47:41.820Z,100.00
2023-04-06T17:50:45.260Z,100.00
2023-04-06T17:53:48.258Z,100.00
2023-04-06T17:56:52.217Z,100.00
2023-04-06T17:59:55.035Z,100.00
2023-04-06T18:02:57.892Z,100.00
2023-04-06T18:06:15.274Z,100.00
2023-04-06T18:09:18.298Z,100.00
2023-04-06T18:12:21.072Z,100.00
2023-04-06T18:15:24.172Z,100.00
2023-04-06T18:18:28.652Z,100.00
2023-04-06T18:21:34.846Z,100.00
2023-04-06T18:24:42.541Z,100.00
2023-04-06T18:27:46.378Z,100.00
2023-04-06T18:30:49.356Z,100.00
2023-04-06T18:33:53.859Z,100.00
2023-04-06T18:36:57.538Z,100.00
2023-04-06T18:40:01.347Z,100.00
2023-04-06T18:43:07.287Z,100.00
2023-04-06T18:46:15.724Z,100.00
2023-04-06T18:49:18.759Z,100.00
2023-04-06T18:52:21.652Z,100.00
2023-04-06T18:55:25.856Z,100.00
2023-04-06T18:58:28.865Z,100.00
2023-04-06T19:01:32.804Z,100.00
2023-04-06T19:04:35.899Z,100.00
2023-04-06T19:07:39.959Z,99.84
2023-04-06T19:10:42.987Z,98.91
2023-04-06T19:13:50.388Z,98.51
2023-04-06T19:16:53.472Z,97.43
2023-04-06T19:19:58.035Z,97.25
2023-04-06T19:23:01.035Z,97.33
2023-04-06T19:26:03.898Z,96.81
2023-04-06T19:29:07.130Z,95.67
2023-04-06T19:32:12.018Z,95.46
2023-04-06T19:35:14.993Z,95.99
2023-04-06T19:38:17.855Z,95.59
2023-04-06T19:41:22.042Z,95.80
2023-04-06T19:44:27.112Z,94.61
2023-04-06T19:47:30.348Z,94.59
2023-04-06T19:50:33.322Z,94.28
2023-04-06T19:53:36.981Z,95.11
2023-04-06T19:56:40.190Z,93.85
2023-04-06T19:59:43.079Z,93.02
2023-04-06T20:02:46.289Z,93.49
2023-04-06T20:05:49.469Z,93.08
2023-04-06T20:08:52.350Z,93.06
2023-04-06T20:11:55.148Z,92.63
2023-04-06T20:14:58.286Z,93.23
2023-04-06T20:18:01.224Z,93.34
2023-04-06T20:21:04.036Z,92.40
2023-04-06T20:24:07.362Z,92.53
2023-04-06T20:27:10.192Z,92.17
2023-04-06T20:30:15.338Z,91.26
2023-04-06T20:33:18.253Z,91.04
2023-04-06T20:36:22.284Z,91.03
2023-04-06T20:39:27.748Z,91.12
2023-04-06T20:42:30.612Z,90.97
2023-04-06T20:45:38.879Z,91.29
2023-04-06T20:48:41.721Z,90.79
2023-04-06T20:51:46.195Z,90.77
2023-04-06T20:54:51.026Z,90.78
2023-04-06T20:57:53.973Z,90.46
2023-04-06T21:00:58.148Z,90.46
2023-04-06T21:04:02.656Z,90.65
2023-04-06T21:07:07.555Z,90.39
2023-04-06T21:10:10.813Z,90.19
2023-04-06T21:13:13.696Z,90.87
2023-04-06T21:16:16.524Z,90.49
2023-04-06T21:19:19.510Z,90.68
2023-04-06T21:22:23.541Z,91.17
2023-04-06T21:25:26.328Z,91.59
2023-04-06T21:28:29.391Z,91.86
2023-04-06T21:31:32.402Z,91.55
2023-04-06T21:34:35.175Z,90.93
2023-04-06T21:37:38.168Z,90.73
2023-04-06T21:40:41.147Z,90.14
2023-04-06T21:43:43.984Z,89.62
2023-04-06T21:46:46.796Z,89.91
2023-04-06T21:49:49.621Z,90.46
2023-04-06T21:52:52.361Z,90.22
2023-04-06T21:55:55.146Z,90.15
2023-04-06T21:58:57.923Z,89.31
2023-04-06T22:02:00.764Z,89.94
2023-04-06T22:05:04.657Z,89.87
2023-04-06T22:08:09.536Z,90.22
2023-04-06T22:11:13.907Z,89.80
2023-04-06T22:14:18.163Z,90.58
2023-04-06T22:17:21.105Z,90.19
2023-04-06T22:20:23.913Z,89.98
2023-04-06T22:23:26.771Z,90.09
2023-04-06T22:26:29.482Z,91.14
2023-04-06T22:29:32.194Z,90.97
2023-04-06T22:32:35.125Z,91.70
2023-04-06T22:35:38.373Z,91.86
2023-04-06T22:38:41.258Z,92.92
2023-04-06T22:41:44.070Z,93.91
2023-04-06T22:44:46.820Z,95.13
2023-04-06T22:47:49.553Z,96.87
2023-04-06T22:50:52.415Z,97.12
2023-04-06T22:53:55.235Z,97.54
2023-04-06T22:56:57.892Z,98.07
2023-04-06T23:00:00.999Z,98.22
2023-04-06T23:03:03.881Z,98.20
2023-04-06T23:06:06.918Z,98.00
2023-04-06T23:09:09.699Z,97.02
2023-04-06T23:12:12.353Z,97.53
2023-04-06T23:15:15.082Z,97.61
2023-04-06T23:18:17.831Z,97.82
2023-04-06T23:21:20.602Z,98.29
2023-04-06T23:24:23.696Z,98.25
2023-04-06T23:27:26.476Z,98.62
2023-04-06T23:30:29.223Z,98.37
2023-04-06T23:33:31.823Z,98.44
2023-04-06T23:36:34.618Z,98.54
2023-04-06T23:39:37.384Z,99.25
2023-04-06T23:42:40.151Z,98.91
2023-04-06T23:45:43.199Z,98.87
2023-04-06T23:48:46.036Z,98.67
2023-04-06T23:51:48.747Z,99.37
2023-04-06T23:54:51.488Z,99.52
2023-04-06T23:57:54.164Z,99.75
